McConnell AFB, Kansas
Current Conditions -  °F | °C
As of 6:54 AM on Friday 19 Dec 2014 (Local Time) from KWLD Reporting Station
Overcast Overcast  
Wind Chill: 26°   Ceiling: 500
Heat Index: 32°   Visibility: 9mi
Dew Point: 30°   Wind: 6mph
Humidity: 92%   Direction: 100°E
Pressure: 30.26"   Gusts: NA
Location:  37.38°N, 97.15°W
Report Text: KWLD 191254Z AUTO 10005KT 9SM OVC005 00/M01 A3026 RMK AO2 SLP255 T00001011
Loading
Personal Weather Stations






























Interactive Weather Map New forecast layout! Learn more

10-Day Weather Forecast

Advertisements
Track Severe Weather on mobile